createdAt,value
2019-04-13T00:02:02.165Z,9.40
2019-04-13T00:05:09.990Z,8.40
2019-04-13T00:11:27.186Z,8.87
2019-04-13T00:13:56.644Z,10.03
2019-04-13T00:16:45.422Z,10.40
2019-04-13T00:19:34.212Z,12.10
2019-04-13T00:22:22.996Z,9.97
2019-04-13T00:25:11.786Z,12.53
2019-04-13T00:28:00.573Z,12.50
2019-04-13T00:30:49.370Z,11.00
2019-04-13T00:33:38.145Z,9.97
2019-04-13T00:36:26.935Z,10.90
2019-04-13T00:39:34.751Z,10.90
2019-04-13T00:42:23.546Z,10.57
2019-04-13T00:45:12.392Z,14.30
2019-04-13T00:48:01.179Z,12.40
2019-04-13T00:50:49.976Z,11.47
2019-04-13T00:53:38.771Z,11.47
2019-04-13T00:56:27.622Z,12.00
2019-04-13T00:59:09.234Z,10.60
2019-04-13T01:01:58.099Z,10.53
2019-04-13T01:04:53.355Z,10.87
2019-04-13T01:07:37.450Z,11.40
2019-04-13T01:10:26.220Z,12.00
2019-04-13T01:13:15.008Z,10.10
2019-04-13T01:16:03.812Z,13.63
2019-04-13T01:22:07.663Z,12.87
2019-04-13T01:24:56.445Z,12.00
2019-04-13T01:27:45.244Z,11.87
2019-04-13T01:30:34.018Z,12.30
2019-04-13T01:33:22.814Z,11.30
2019-04-13T01:36:11.591Z,12.20
2019-04-13T01:39:00.387Z,12.90
2019-04-13T01:41:49.173Z,13.30
2019-04-13T01:44:37.974Z,12.40
2019-04-13T01:47:26.804Z,13.07
2019-04-13T01:50:15.565Z,12.10
2019-04-13T01:53:04.376Z,15.97
2019-04-13T01:55:53.504Z,12.93
2019-04-13T01:58:35.479Z,14.13
2019-04-13T02:01:24.043Z,15.30
2019-04-13T02:07:41.264Z,12.93
2019-04-13T02:10:49.071Z,12.53
2019-04-13T02:13:37.854Z,15.03
2019-04-13T02:16:26.650Z,12.97
2019-04-13T02:19:15.429Z,14.05
2019-04-13T02:22:04.219Z,14.93
2019-04-13T02:24:52.997Z,12.27
2019-04-13T02:27:41.795Z,14.30
2019-04-13T02:30:30.580Z,16.27
2019-04-13T02:33:21.758Z,16.40
2019-04-13T02:36:09.890Z,13.77
2019-04-13T02:38:58.692Z,13.73
2019-04-13T02:41:47.715Z,12.40
2019-04-13T02:44:36.504Z,15.60
2019-04-13T02:47:25.299Z,15.47
2019-04-13T02:50:14.456Z,14.53
2019-04-13T02:53:03.241Z,14.27
2019-04-13T02:55:52.034Z,15.80
2019-04-13T02:58:40.885Z,14.20
2019-04-13T03:01:23.028Z,16.10
2019-04-13T03:04:11.989Z,15.57
2019-04-13T03:07:00.883Z,12.60
2019-04-13T03:09:49.671Z,16.03
2019-04-13T03:12:38.458Z,15.38
2019-04-13T03:15:46.345Z,16.43
2019-04-13T03:21:44.520Z,14.53
2019-04-13T03:24:33.302Z,23.80
2019-04-13T03:27:22.103Z,14.43
2019-04-13T03:33:07.129Z,14.07
2019-04-13T03:35:59.568Z,14.37
2019-04-13T03:38:46.510Z,14.87
2019-04-13T03:41:56.053Z,15.03
2019-04-13T03:44:44.863Z,17.13
2019-04-13T03:47:33.642Z,13.97
2019-04-13T03:50:22.502Z,16.73
2019-04-13T03:53:11.293Z,19.70
2019-04-13T03:56:00.084Z,16.63
2019-04-13T03:58:48.862Z,16.70
2019-04-13T04:01:30.302Z,15.30
2019-04-13T04:04:19.092Z,19.23
2019-04-13T04:07:07.891Z,16.57
2019-04-13T04:09:57.031Z,16.90
2019-04-13T04:12:45.805Z,14.80
2019-04-13T04:15:34.699Z,17.53
2019-04-13T04:18:23.527Z,18.33
2019-04-13T04:21:12.311Z,14.77
2019-04-13T04:24:01.115Z,15.60
2019-04-13T04:26:49.907Z,16.20
2019-04-13T04:29:38.725Z,14.00
2019-04-13T04:32:27.530Z,16.27
2019-04-13T04:35:16.311Z,15.83
2019-04-13T04:38:05.111Z,14.17
2019-04-13T04:40:53.888Z,15.10
2019-04-13T04:43:42.707Z,16.20
2019-04-13T04:46:31.671Z,19.90
2019-04-13T04:49:20.561Z,17.90
2019-04-13T04:52:28.492Z,17.87
2019-04-13T04:55:17.398Z,15.63
2019-04-13T04:58:06.278Z,18.10
2019-04-13T05:00:47.737Z,16.73
2019-04-13T05:03:36.515Z,16.80
2019-04-13T05:06:35.452Z,17.93
2019-04-13T05:09:15.842Z,16.60
2019-04-13T05:12:04.640Z,17.67
2019-04-13T05:14:53.447Z,17.63
2019-04-13T05:17:42.228Z,18.10
2019-04-13T05:20:31.026Z,19.80
2019-04-13T05:23:19.812Z,16.63
2019-04-13T05:26:08.610Z,15.20
2019-04-13T05:28:57.401Z,15.83
2019-04-13T05:31:46.205Z,13.53
2019-04-13T05:34:34.984Z,23.22
2019-04-13T05:37:23.775Z,14.27
2019-04-13T05:40:12.684Z,15.77
2019-04-13T05:43:01.478Z,17.50
2019-04-13T05:45:50.266Z,20.83
2019-04-13T05:48:39.050Z,15.27
2019-04-13T05:51:27.842Z,16.47
2019-04-13T05:54:16.619Z,19.80
2019-04-13T05:57:05.417Z,16.30
2019-04-13T05:59:47.208Z,15.83
2019-04-13T06:02:36.065Z,15.77
2019-04-13T06:05:24.847Z,15.57
2019-04-13T06:08:13.628Z,14.93
2019-04-13T06:11:03.387Z,17.47
2019-04-13T06:13:52.927Z,11.83
2019-04-13T06:16:41.722Z,14.80
2019-04-13T06:19:30.498Z,15.10
2019-04-13T06:22:19.299Z,14.97
2019-04-13T06:28:36.565Z,18.23
2019-04-13T06:31:44.377Z,17.03
2019-04-13T06:34:52.198Z,20.52
2019-04-13T06:37:40.986Z,16.70
2019-04-13T06:40:29.783Z,18.40
2019-04-13T06:43:18.561Z,17.30
2019-04-13T06:46:07.430Z,16.97
2019-04-13T06:48:56.205Z,16.12
2019-04-13T06:51:45.008Z,13.50
2019-04-13T06:54:33.789Z,20.80
2019-04-13T06:57:22.592Z,13.47
2019-04-13T07:00:06.357Z,11.37
2019-04-13T07:02:55.142Z,12.77
2019-04-13T07:05:43.930Z,13.27
2019-04-13T07:08:52.517Z,12.20
2019-04-13T07:14:53.512Z,13.17
2019-04-13T07:20:32.223Z,13.90
2019-04-13T07:23:25.199Z,12.00
2019-04-13T07:26:11.520Z,13.20
2019-04-13T07:29:00.326Z,13.00
2019-04-13T07:31:49.193Z,13.17
2019-04-13T07:34:37.971Z,11.77
2019-04-13T07:37:36.201Z,11.83
2019-04-13T07:40:20.666Z,12.20
2019-04-13T07:46:20.702Z,13.47
2019-04-13T07:49:28.535Z,13.62
2019-04-13T07:52:36.342Z,14.20
2019-04-13T07:55:25.156Z,13.10
2019-04-13T07:58:16.677Z,13.47
2019-04-13T08:00:58.784Z,12.80
2019-04-13T08:03:47.857Z,11.73
2019-04-13T08:06:37.045Z,12.97
2019-04-13T08:09:27.223Z,14.30
2019-04-13T08:12:17.115Z,13.83
2019-04-13T08:18:35.410Z,13.43
2019-04-13T08:21:24.263Z,13.93
2019-04-13T08:24:13.053Z,12.30
2019-04-13T08:27:01.833Z,12.20
2019-04-13T08:29:50.623Z,12.20
2019-04-13T08:32:39.436Z,12.00
2019-04-13T08:35:28.224Z,13.50
2019-04-13T08:38:17.003Z,12.00
2019-04-13T08:41:11.166Z,11.60
2019-04-13T08:43:56.298Z,14.07
2019-04-13T08:49:52.916Z,12.30
2019-04-13T08:52:41.701Z,12.43
2019-04-13T08:55:30.491Z,11.67
2019-04-13T08:58:19.664Z,12.10
2019-04-13T09:01:02.787Z,9.47
2019-04-13T09:03:51.593Z,9.97
2019-04-13T09:06:40.389Z,12.23
2019-04-13T09:09:29.655Z,10.53
2019-04-13T09:12:20.485Z,10.73
2019-04-13T09:15:10.428Z,12.50
2019-04-13T09:18:18.633Z,11.80
2019-04-13T09:24:06.611Z,12.78
2019-04-13T09:26:55.378Z,12.40
2019-04-13T09:29:44.519Z,12.30
2019-04-13T09:32:34.671Z,11.27
2019-04-13T09:35:25.471Z,11.70
2019-04-13T09:38:14.004Z,12.03
2019-04-13T09:44:16.468Z,13.80
2019-04-13T09:53:19.833Z,12.97
2019-04-13T09:56:09.790Z,13.20
2019-04-13T09:58:58.582Z,13.62
2019-04-13T10:01:47.355Z,12.93
2019-04-13T10:04:36.158Z,11.20
2019-04-13T10:07:24.933Z,10.60
2019-04-13T10:10:13.735Z,12.03
2019-04-13T10:13:21.800Z,10.20
2019-04-13T10:16:29.615Z,12.47
2019-04-13T10:19:18.418Z,11.50
2019-04-13T10:22:07.211Z,11.63
2019-04-13T10:24:55.999Z,11.20
2019-04-13T10:27:47.667Z,10.13
2019-04-13T10:30:35.314Z,10.67
2019-04-13T10:33:24.103Z,9.33
2019-04-13T10:36:13.211Z,9.80
2019-04-13T10:39:08.372Z,9.27
2019-04-13T10:41:53.104Z,9.40
2019-04-13T10:48:01.113Z,9.90
2019-04-13T10:51:08.940Z,11.87
2019-04-13T10:53:57.711Z,10.75
2019-04-13T10:57:05.525Z,12.47
2019-04-13T10:59:54.313Z,8.63
2019-04-13T11:02:34.070Z,9.33
2019-04-13T11:05:22.881Z,10.10
2019-04-13T11:08:11.729Z,10.78
2019-04-13T11:11:00.519Z,9.50
2019-04-13T11:13:49.298Z,8.77
2019-04-13T11:16:38.101Z,8.57
2019-04-13T11:19:26.871Z,9.30
2019-04-13T11:22:15.675Z,8.70
2019-04-13T11:28:33.708Z,6.87
2019-04-13T11:31:23.156Z,7.47
2019-04-13T11:34:13.002Z,7.43
2019-04-13T11:37:01.768Z,7.70
2019-04-13T11:39:50.592Z,8.53
2019-04-13T11:42:39.177Z,6.60
2019-04-13T11:45:46.999Z,9.17
2019-04-13T11:48:35.545Z,8.20
2019-04-13T11:51:25.975Z,9.57
2019-04-13T11:54:14.758Z,8.90
2019-04-13T11:57:03.556Z,9.57
2019-04-13T11:59:52.327Z,9.23
2019-04-13T12:02:38.254Z,8.00
2019-04-13T12:05:46.026Z,7.80
2019-04-13T12:08:53.845Z,8.93
2019-04-13T12:14:51.990Z,10.17
2019-04-13T12:18:01.294Z,10.60
2019-04-13T12:21:09.120Z,9.30
2019-04-13T12:27:07.358Z,9.00
2019-04-13T12:29:56.133Z,8.83
2019-04-13T12:32:47.090Z,9.47
2019-04-13T12:35:35.449Z,10.83
2019-04-13T12:38:24.229Z,10.80
2019-04-13T12:41:32.047Z,11.30
2019-04-13T12:44:14.165Z,17.17
2019-04-13T12:49:58.678Z,14.30
2019-04-13T12:52:47.473Z,15.67
2019-04-13T12:55:36.265Z,16.70
2019-04-13T12:58:25.059Z,15.40
2019-04-13T13:01:32.932Z,13.33
2019-04-13T13:07:17.162Z,13.60
2019-04-13T13:10:26.852Z,14.67
2019-04-13T13:13:15.640Z,12.73
2019-04-13T13:16:04.421Z,13.63
2019-04-13T13:18:53.212Z,14.30
2019-04-13T13:21:41.986Z,11.17
2019-04-13T13:24:30.773Z,19.37
2019-04-13T13:27:19.572Z,13.83
2019-04-13T13:33:23.064Z,14.60
2019-04-13T13:36:11.840Z,14.93
2019-04-13T13:39:00.631Z,13.00
2019-04-13T13:41:49.416Z,13.93
2019-04-13T13:44:30.824Z,14.43
2019-04-13T13:47:19.611Z,17.50
2019-04-13T13:53:23.897Z,16.37
2019-04-13T13:56:12.677Z,16.87
2019-04-13T14:04:53.446Z,17.17
2019-04-13T14:07:42.242Z,17.57
2019-04-13T14:10:42.364Z,15.80
2019-04-13T14:13:21.554Z,17.93
2019-04-13T14:19:04.713Z,18.97
2019-04-13T14:21:53.506Z,15.60
2019-04-13T14:24:42.282Z,16.33
2019-04-13T14:27:31.076Z,15.20
2019-04-13T14:30:19.855Z,14.87
2019-04-13T14:33:08.724Z,16.77
2019-04-13T14:35:57.504Z,14.33
2019-04-13T14:38:46.377Z,16.50
2019-04-13T14:41:35.158Z,14.87
2019-04-13T14:44:23.959Z,18.23
2019-04-13T14:47:06.510Z,15.75
2019-04-13T14:49:58.419Z,14.67
2019-04-13T14:52:45.815Z,17.30
2019-04-13T14:55:34.582Z,14.53
2019-04-13T14:58:23.371Z,16.30
2019-04-13T15:01:12.160Z,14.87
2019-04-13T15:04:00.964Z,17.13
2019-04-13T15:06:49.734Z,17.17
2019-04-13T15:09:38.522Z,18.23
2019-04-13T15:12:27.301Z,16.67
2019-04-13T15:15:16.097Z,18.57
2019-04-13T15:21:15.521Z,20.17
2019-04-13T15:24:24.491Z,20.73
2019-04-13T15:33:12.578Z,21.87
2019-04-13T15:39:04.178Z,16.62
2019-04-13T15:42:03.112Z,17.07
2019-04-13T15:44:34.858Z,16.23
2019-04-13T15:47:27.136Z,20.20
2019-04-13T15:50:16.921Z,22.87
2019-04-13T15:53:04.689Z,21.70
2019-04-13T15:55:54.608Z,18.47
2019-04-13T15:58:44.667Z,20.33
2019-04-13T16:01:34.620Z,19.87
2019-04-13T16:04:45.594Z,24.23
2019-04-13T16:07:34.514Z,15.45
2019-04-13T16:10:24.684Z,15.57
2019-04-13T16:16:24.052Z,20.20
2019-04-13T16:19:13.607Z,20.80
2019-04-13T16:22:04.651Z,19.30
2019-04-13T16:24:54.677Z,20.80
2019-04-13T16:30:59.572Z,16.50
2019-04-13T16:34:07.738Z,17.47
2019-04-13T16:39:53.526Z,13.17
2019-04-13T16:42:43.247Z,16.30
2019-04-13T16:45:52.862Z,14.37
2019-04-13T16:49:07.534Z,19.00
2019-04-13T16:52:11.337Z,15.50
2019-04-13T17:01:14.680Z,16.60
2019-04-13T17:04:23.540Z,16.00
2019-04-13T17:07:13.995Z,16.57
2019-04-13T17:10:21.799Z,17.57
2019-04-13T17:13:11.740Z,16.20
2019-04-13T17:16:01.174Z,15.47
2019-04-13T17:19:09.764Z,14.97
2019-04-13T17:25:27.997Z,16.97
2019-04-13T17:31:45.201Z,18.83
2019-04-13T17:37:44.118Z,14.47
2019-04-13T17:43:54.969Z,23.37
2019-04-13T17:47:03.711Z,20.00
2019-04-13T17:50:11.542Z,20.20
2019-04-13T17:53:01.388Z,19.90
2019-04-13T17:59:19.767Z,29.35
2019-04-13T18:02:27.703Z,38.77
2019-04-13T18:05:35.812Z,24.70
2019-04-13T18:08:48.830Z,19.83
2019-04-13T18:11:53.441Z,19.70
2019-04-13T18:15:01.256Z,21.17
2019-04-13T18:20:45.619Z,24.40
2019-04-13T18:23:34.408Z,24.97
2019-04-13T18:26:23.216Z,53.57
2019-04-13T18:29:13.132Z,50.93
2019-04-13T18:32:03.010Z,51.10
2019-04-13T18:34:53.957Z,48.27
2019-04-13T18:37:43.633Z,45.63
2019-04-13T18:40:24.948Z,36.20
2019-04-13T18:43:19.409Z,24.23
2019-04-13T18:46:01.357Z,24.60
2019-04-13T18:48:48.871Z,24.33
2019-04-13T18:51:38.456Z,19.17
2019-04-13T18:54:28.003Z,24.83
2019-04-13T18:57:17.774Z,20.47
2019-04-13T19:00:27.828Z,19.40
2019-04-13T19:03:19.426Z,19.40
2019-04-13T19:06:08.548Z,23.57
2019-04-13T19:08:57.344Z,22.80
2019-04-13T19:11:46.137Z,19.77
2019-04-13T19:14:34.913Z,25.10
2019-04-13T19:17:23.725Z,22.93
2019-04-13T19:23:40.993Z,28.03
2019-04-13T19:26:29.773Z,32.37
2019-04-13T19:29:18.565Z,26.07
2019-04-13T19:32:07.345Z,29.67
2019-04-13T19:34:56.486Z,29.60
2019-04-13T19:41:06.479Z,34.63
2019-04-13T19:43:55.672Z,28.80
2019-04-13T19:46:44.554Z,29.60
2019-04-13T19:49:33.386Z,31.70
2019-04-13T19:52:43.048Z,31.70
2019-04-13T19:55:32.020Z,24.87
2019-04-13T19:58:20.873Z,30.97
2019-04-13T20:06:59.534Z,26.90
2019-04-13T20:09:48.331Z,30.80
2019-04-13T20:12:38.340Z,28.90
2019-04-13T20:15:27.727Z,26.40
2019-04-13T20:18:16.547Z,29.10
2019-04-13T20:21:05.449Z,28.50
2019-04-13T20:23:54.318Z,29.53
2019-04-13T20:26:43.151Z,26.53
2019-04-13T20:29:31.984Z,25.82
2019-04-13T20:32:21.052Z,26.20
2019-04-13T20:35:12.630Z,26.20
2019-04-13T20:38:02.040Z,22.87
2019-04-13T20:41:10.533Z,25.00
2019-04-13T20:43:59.608Z,26.97
2019-04-13T20:46:45.137Z,27.40
2019-04-13T20:49:34.778Z,29.57
2019-04-13T20:52:23.636Z,27.70
2019-04-13T20:55:13.354Z,26.87
2019-04-13T20:58:03.137Z,26.67
2019-04-13T21:00:52.972Z,26.40
2019-04-13T21:03:42.604Z,27.60
2019-04-13T21:06:33.018Z,30.27
2019-04-13T21:09:22.603Z,26.52
2019-04-13T21:15:07.600Z,28.70
2019-04-13T21:17:57.654Z,26.73
2019-04-13T21:20:47.789Z,26.67
2019-04-13T21:23:37.043Z,26.90
2019-04-13T21:26:27.103Z,28.07
2019-04-13T21:29:17.413Z,28.37
2019-04-13T21:32:07.517Z,26.10
2019-04-13T21:34:59.259Z,26.30
2019-04-13T21:37:48.789Z,27.63
2019-04-13T21:40:39.098Z,27.17
2019-04-13T21:43:29.904Z,25.40
2019-04-13T21:46:11.145Z,25.50
2019-04-13T21:49:01.151Z,28.17
2019-04-13T21:55:00.376Z,29.47
2019-04-13T21:58:09.976Z,29.43
2019-04-13T22:04:15.577Z,26.87
2019-04-13T22:10:20.290Z,25.30
2019-04-13T22:13:09.912Z,25.90
2019-04-13T22:16:01.598Z,27.60
2019-04-13T22:18:51.728Z,29.07
2019-04-13T22:21:41.557Z,28.27
2019-04-13T22:24:30.919Z,35.77
2019-04-13T22:27:20.890Z,27.80
2019-04-13T22:33:19.661Z,27.03
2019-04-13T22:36:29.025Z,27.90
2019-04-13T22:39:18.225Z,25.60
2019-04-13T22:42:08.275Z,25.60
2019-04-13T22:44:57.244Z,26.37
2019-04-13T22:51:09.917Z,30.17
2019-04-13T22:54:18.839Z,27.67
2019-04-13T22:57:28.273Z,30.37
2019-04-13T23:00:37.089Z,27.40
2019-04-13T23:06:20.674Z,29.30
2019-04-13T23:09:10.732Z,28.70
2019-04-13T23:12:01.086Z,27.97
2019-04-13T23:14:57.888Z,25.50
2019-04-13T23:17:22.313Z,28.70
2019-04-13T23:23:27.168Z,31.07
2019-04-13T23:26:16.886Z,29.87
2019-04-13T23:29:06.567Z,25.37
2019-04-13T23:31:56.438Z,28.20
2019-04-13T23:34:46.531Z,27.40
2019-04-13T23:37:36.632Z,24.10
2019-04-13T23:40:26.406Z,30.70
2019-04-13T23:43:16.839Z,26.77
2019-04-13T23:46:06.829Z,27.90
2019-04-13T23:48:56.974Z,27.57
2019-04-13T23:51:46.861Z,25.80
2019-04-13T23:54:36.886Z,27.57
